Terminal Aerodrome Forecast
Issued by NWS Cleveland, OH

Home | Current Version | Previous Version | Graphics & Text | Print | Product List | Glossary On
Versions: 1 2 3 4 5 6 7 8 9 10 11 12 13 14 15 16 17 18 19 20 21 22 23
000
FTUS41 KCLE 230539
TAFYNG
TAF
KYNG 230539Z 2306/2406 12008KT P6SM OVC009
     FM230900 12009KT P6SM OVC006
     FM231200 14009KT P6SM -RA OVC006
     FM231700 17010KT 5SM RA BR OVC006
     FM232100 23006KT 3SM RA BR OVC006
     FM240100 27006KT P6SM OVC006=

USA.gov is the U.S. government's official web portal to all federal, state and local government web resources and services.